createdAt,value
2022-07-26T00:01:20.324Z,7.10
2022-07-26T00:03:49.788Z,6.53
2022-07-26T00:06:18.947Z,5.20
2022-07-26T00:08:48.058Z,6.50
2022-07-26T00:11:16.364Z,6.27
2022-07-26T00:13:44.735Z,6.37
2022-07-26T00:16:13.194Z,4.90
2022-07-26T00:18:43.245Z,6.07
2022-07-26T00:21:12.407Z,5.13
2022-07-26T00:23:40.683Z,5.53
2022-07-26T00:26:08.986Z,6.37
2022-07-26T00:28:37.141Z,7.20
2022-07-26T00:31:05.412Z,6.73
2022-07-26T00:33:33.684Z,8.00
2022-07-26T00:36:03.215Z,7.20
2022-07-26T00:38:31.410Z,6.63
2022-07-26T00:40:59.941Z,6.90
2022-07-26T00:43:28.141Z,7.43
2022-07-26T00:45:56.311Z,7.97
2022-07-26T00:48:24.674Z,9.10
2022-07-26T00:50:54.552Z,7.73
2022-07-26T00:53:24.658Z,7.10
2022-07-26T00:55:53.956Z,6.40
2022-07-26T00:58:22.137Z,7.07
2022-07-26T01:00:50.415Z,7.07
2022-07-26T01:03:18.696Z,7.23
2022-07-26T01:05:48.387Z,6.60
2022-07-26T01:08:16.601Z,7.10
2022-07-26T01:10:46.073Z,6.03
2022-07-26T01:13:16.278Z,5.90
2022-07-26T01:15:44.530Z,6.87
2022-07-26T01:18:12.704Z,7.20
2022-07-26T01:20:40.903Z,7.23
2022-07-26T01:23:10.568Z,7.10
2022-07-26T01:25:43.733Z,6.20
2022-07-26T01:28:19.627Z,7.30
2022-07-26T01:30:49.128Z,7.30
2022-07-26T01:33:17.740Z,6.20
2022-07-26T01:35:46.049Z,6.80
2022-07-26T01:38:15.546Z,5.27
2022-07-26T01:40:43.874Z,4.80
2022-07-26T01:43:12.050Z,6.37
2022-07-26T01:45:40.193Z,5.47
2022-07-26T01:48:08.611Z,5.17
2022-07-26T01:50:36.846Z,5.60
2022-07-26T01:53:06.185Z,5.23
2022-07-26T01:55:36.515Z,4.97
2022-07-26T01:58:05.513Z,4.50
2022-07-26T02:00:37.472Z,4.13
2022-07-26T02:03:06.098Z,4.13
2022-07-26T02:05:34.385Z,3.60
2022-07-26T02:08:04.372Z,4.37
2022-07-26T02:10:46.499Z,3.80
2022-07-26T02:13:17.329Z,3.23
2022-07-26T02:15:45.503Z,4.00
2022-07-26T02:18:14.105Z,4.60
2022-07-26T02:20:42.267Z,4.10
2022-07-26T02:23:10.538Z,4.00
2022-07-26T02:25:38.748Z,3.97
2022-07-26T02:28:07.267Z,4.10
2022-07-26T02:30:36.937Z,4.13
2022-07-26T02:33:07.141Z,4.07
2022-07-26T02:35:35.315Z,3.93
2022-07-26T02:38:04.647Z,4.20
2022-07-26T02:40:33.182Z,3.83
2022-07-26T02:43:01.453Z,3.70
2022-07-26T02:45:29.735Z,3.90
2022-07-26T02:47:59.468Z,4.10
2022-07-26T02:50:28.845Z,4.30
2022-07-26T02:52:57.698Z,3.57
2022-07-26T02:55:27.461Z,4.33
2022-07-26T02:57:55.910Z,4.80
2022-07-26T03:00:25.611Z,5.07
2022-07-26T03:02:54.826Z,5.27
2022-07-26T03:05:24.650Z,5.23
2022-07-26T03:07:52.761Z,4.77
2022-07-26T03:10:21.021Z,4.63
2022-07-26T03:12:49.169Z,4.10
2022-07-26T03:15:17.348Z,4.03
2022-07-26T03:17:45.562Z,3.77
2022-07-26T03:20:14.339Z,3.00
2022-07-26T03:22:44.086Z,4.60
2022-07-26T03:25:12.237Z,4.10
2022-07-26T03:27:40.460Z,4.23
2022-07-26T03:30:10.012Z,4.57
2022-07-26T03:32:39.780Z,4.43
2022-07-26T03:35:08.925Z,4.80
2022-07-26T03:37:44.981Z,4.40
2022-07-26T03:40:16.990Z,4.47
2022-07-26T03:42:45.519Z,4.00
2022-07-26T03:45:14.488Z,4.87
2022-07-26T03:47:42.991Z,4.73
2022-07-26T03:50:13.730Z,4.30
2022-07-26T03:52:42.517Z,4.57
2022-07-26T03:55:28.805Z,4.30
2022-07-26T03:57:58.962Z,3.60
2022-07-26T04:00:27.304Z,4.50
2022-07-26T04:02:55.490Z,6.30
2022-07-26T04:05:26.180Z,5.00
2022-07-26T04:07:55.930Z,3.63
2022-07-26T04:10:24.655Z,4.37
2022-07-26T04:12:52.995Z,3.57
2022-07-26T04:15:22.750Z,3.63
2022-07-26T04:17:51.048Z,3.93
2022-07-26T04:20:19.679Z,3.80
2022-07-26T04:22:47.914Z,3.40
2022-07-26T04:25:16.195Z,3.53
2022-07-26T04:27:44.563Z,3.53
2022-07-26T04:30:15.477Z,3.73
2022-07-26T04:32:46.817Z,3.70
2022-07-26T04:35:16.669Z,3.50
2022-07-26T04:37:45.831Z,3.70
2022-07-26T04:40:21.219Z,4.20
2022-07-26T04:42:51.200Z,3.40
2022-07-26T04:45:19.602Z,3.37
2022-07-26T04:47:50.805Z,3.77
2022-07-26T04:50:19.602Z,3.90
2022-07-26T04:52:47.923Z,3.80
2022-07-26T04:55:16.284Z,3.30
2022-07-26T04:57:44.776Z,3.83
2022-07-26T05:00:22.525Z,4.10
2022-07-26T05:02:54.744Z,3.97
2022-07-26T05:05:23.348Z,4.10
2022-07-26T05:07:53.288Z,3.80
2022-07-26T05:10:23.684Z,4.07
2022-07-26T05:12:51.869Z,4.50
2022-07-26T05:15:20.056Z,4.90
2022-07-26T05:17:48.276Z,4.80
2022-07-26T05:20:19.226Z,5.00
2022-07-26T05:22:47.968Z,4.87
2022-07-26T05:25:16.150Z,4.90
2022-07-26T05:27:44.337Z,4.33
2022-07-26T05:30:12.924Z,5.93
2022-07-26T05:32:41.351Z,5.60
2022-07-26T05:35:10.283Z,4.33
2022-07-26T05:37:39.955Z,5.17
2022-07-26T05:40:09.010Z,5.13
2022-07-26T05:42:37.215Z,4.77
2022-07-26T05:45:06.962Z,4.17
2022-07-26T05:47:35.306Z,4.50
2022-07-26T05:50:03.644Z,5.10
2022-07-26T05:52:31.916Z,3.97
2022-07-26T05:55:01.537Z,4.17
2022-07-26T05:57:29.905Z,5.00
2022-07-26T05:59:58.129Z,4.13
2022-07-26T06:02:26.378Z,4.20
2022-07-26T06:04:54.724Z,4.50
2022-07-26T06:07:22.895Z,5.20
2022-07-26T06:09:51.051Z,3.63
2022-07-26T06:12:20.580Z,4.33
2022-07-26T06:14:48.747Z,4.43
2022-07-26T06:17:17.015Z,3.27
2022-07-26T06:19:47.736Z,4.20
2022-07-26T06:22:16.368Z,3.83
2022-07-26T06:24:44.567Z,3.63
2022-07-26T06:27:12.709Z,4.00
2022-07-26T06:29:42.309Z,4.77
2022-07-26T06:32:10.500Z,4.40
2022-07-26T06:34:38.673Z,3.93
2022-07-26T06:37:06.821Z,2.93
2022-07-26T06:39:34.977Z,3.80
2022-07-26T06:42:03.248Z,4.70
2022-07-26T06:44:31.429Z,4.97
2022-07-26T06:47:00.932Z,4.13
2022-07-26T06:49:29.273Z,4.10
2022-07-26T06:51:58.245Z,4.47
2022-07-26T06:54:26.377Z,4.10
2022-07-26T06:56:54.867Z,4.20
2022-07-26T06:59:23.055Z,4.43
2022-07-26T07:01:59.443Z,4.67
2022-07-26T07:04:30.008Z,4.80
2022-07-26T07:07:04.523Z,3.93
2022-07-26T07:09:35.003Z,3.13
2022-07-26T07:12:09.546Z,4.00
2022-07-26T07:14:38.407Z,3.93
2022-07-26T07:17:17.186Z,3.53
2022-07-26T07:19:49.757Z,3.30
2022-07-26T07:22:18.032Z,3.50
2022-07-26T07:24:46.557Z,3.60
2022-07-26T07:27:14.994Z,4.47
2022-07-26T07:29:44.082Z,3.40
2022-07-26T07:32:18.123Z,3.50
2022-07-26T07:34:47.665Z,3.47
2022-07-26T07:37:17.633Z,3.30
2022-07-26T07:39:50.191Z,3.70
2022-07-26T07:42:18.927Z,4.10
2022-07-26T07:44:47.099Z,3.60
2022-07-26T07:47:15.403Z,4.47
2022-07-26T07:49:43.776Z,4.07
2022-07-26T07:52:11.923Z,4.40
2022-07-26T07:54:42.217Z,4.13
2022-07-26T07:57:10.744Z,4.80
2022-07-26T07:59:39.322Z,4.73
2022-07-26T08:02:09.390Z,4.17
2022-07-26T08:04:37.589Z,4.40
2022-07-26T08:07:05.874Z,3.87
2022-07-26T08:09:34.224Z,4.10
2022-07-26T08:12:03.932Z,4.13
2022-07-26T08:14:33.710Z,3.47
2022-07-26T08:17:02.445Z,3.80
2022-07-26T08:19:41.973Z,4.13
2022-07-26T08:22:11.413Z,4.10
2022-07-26T08:24:40.638Z,3.20
2022-07-26T08:27:10.235Z,3.30
2022-07-26T08:29:38.408Z,3.20
2022-07-26T08:32:07.651Z,3.87
2022-07-26T08:34:36.116Z,3.57
2022-07-26T08:37:17.257Z,3.30
2022-07-26T08:39:46.149Z,2.90
2022-07-26T08:42:16.787Z,3.67
2022-07-26T08:44:45.679Z,3.43
2022-07-26T08:47:14.306Z,3.50
2022-07-26T08:49:42.649Z,3.90
2022-07-26T08:52:11.834Z,3.90
2022-07-26T08:54:44.176Z,3.50
2022-07-26T08:57:13.535Z,3.37
2022-07-26T08:59:43.591Z,4.23
2022-07-26T09:02:13.798Z,3.07
2022-07-26T09:04:45.052Z,2.60
2022-07-26T09:07:15.560Z,3.73
2022-07-26T09:09:59.020Z,3.90
2022-07-26T09:12:28.642Z,3.60
2022-07-26T09:14:58.586Z,3.60
2022-07-26T09:17:39.100Z,3.40
2022-07-26T09:20:09.574Z,3.87
2022-07-26T09:22:38.131Z,4.20
2022-07-26T09:25:21.685Z,3.87
2022-07-26T09:27:49.897Z,4.07
2022-07-26T09:30:19.556Z,3.87
2022-07-26T09:32:59.132Z,3.40
2022-07-26T09:38:17.597Z,2.93
2022-07-26T09:40:49.609Z,3.10
2022-07-26T09:43:22.142Z,4.20
2022-07-26T09:46:06.251Z,3.20
2022-07-26T09:49:07.027Z,3.23
2022-07-26T09:51:40.606Z,2.80
2022-07-26T09:54:10.202Z,4.03
2022-07-26T09:56:47.541Z,3.07
2022-07-26T09:59:16.774Z,3.33
2022-07-26T10:01:46.487Z,1.90
2022-07-26T10:04:15.780Z,2.13
2022-07-26T10:06:44.377Z,2.13
2022-07-26T10:09:13.292Z,2.03
2022-07-26T10:11:44.077Z,2.07
2022-07-26T10:14:41.400Z,1.70
2022-07-26T10:17:45.892Z,1.57
2022-07-26T10:20:47.545Z,1.83
2022-07-26T10:23:41.634Z,1.57
2022-07-26T10:26:15.290Z,1.57
2022-07-26T10:28:43.539Z,1.23
2022-07-26T10:31:32.567Z,1.67
2022-07-26T10:34:02.598Z,1.27
2022-07-26T10:36:39.340Z,1.30
2022-07-26T10:39:14.995Z,1.30
2022-07-26T10:41:45.631Z,1.50
2022-07-26T10:44:25.777Z,1.50
2022-07-26T10:47:18.374Z,1.47
2022-07-26T10:49:57.359Z,0.90
2022-07-26T10:52:29.455Z,1.50
2022-07-26T10:55:08.892Z,1.27
2022-07-26T10:57:39.614Z,1.30
2022-07-26T11:00:19.749Z,1.27
2022-07-26T11:02:59.270Z,1.30
2022-07-26T11:05:31.350Z,1.80
2022-07-26T11:08:08.227Z,1.20
2022-07-26T11:10:38.562Z,1.10
2022-07-26T11:13:12.452Z,0.97
2022-07-26T11:15:43.037Z,1.10
2022-07-26T11:18:18.013Z,1.03
2022-07-26T11:20:47.419Z,0.93
2022-07-26T11:23:39.004Z,0.87
2022-07-26T11:26:09.743Z,0.93
2022-07-26T11:28:45.676Z,0.60
2022-07-26T11:31:14.597Z,1.20
2022-07-26T11:33:45.080Z,1.50
2022-07-26T11:36:13.750Z,1.30
2022-07-26T11:38:48.306Z,1.30
2022-07-26T11:41:16.813Z,1.07
2022-07-26T11:43:44.974Z,1.70
2022-07-26T11:46:13.206Z,1.30
2022-07-26T11:48:46.794Z,0.80
2022-07-26T11:51:16.701Z,2.50
2022-07-26T11:53:46.869Z,1.20
2022-07-26T11:56:21.911Z,1.40
2022-07-26T11:58:51.382Z,0.80
2022-07-26T12:01:20.889Z,1.10
2022-07-26T12:03:51.230Z,1.37
2022-07-26T12:06:21.082Z,1.77
2022-07-26T12:08:56.270Z,1.10
2022-07-26T12:11:26.181Z,1.07
2022-07-26T12:13:59.473Z,1.20
2022-07-26T12:16:42.833Z,1.27
2022-07-26T12:19:12.951Z,1.73
2022-07-26T12:21:43.439Z,1.33
2022-07-26T12:24:14.464Z,1.30
2022-07-26T12:26:42.641Z,1.70
2022-07-26T12:29:25.733Z,1.00
2022-07-26T12:32:18.479Z,1.50
2022-07-26T12:34:57.661Z,1.63
2022-07-26T12:37:37.628Z,1.20
2022-07-26T12:40:11.538Z,1.57
2022-07-26T12:42:41.254Z,1.80
2022-07-26T12:45:11.625Z,1.67
2022-07-26T12:47:42.420Z,1.53
2022-07-26T12:50:12.666Z,1.80
2022-07-26T12:52:42.036Z,2.00
2022-07-26T12:55:14.801Z,2.07
2022-07-26T12:57:45.971Z,1.97
2022-07-26T13:00:18.522Z,1.50
2022-07-26T13:02:47.133Z,2.10
2022-07-26T13:05:16.270Z,2.40
2022-07-26T13:07:44.793Z,1.70
2022-07-26T13:10:32.347Z,1.60
2022-07-26T13:13:01.561Z,2.10
2022-07-26T13:15:36.138Z,2.43
2022-07-26T13:18:07.823Z,2.17
2022-07-26T13:20:37.896Z,1.87
2022-07-26T13:23:06.078Z,1.73
2022-07-26T13:25:40.030Z,1.60
2022-07-26T13:28:09.181Z,1.90
2022-07-26T13:30:38.825Z,1.47
2022-07-26T13:33:07.168Z,2.03
2022-07-26T13:35:35.436Z,2.27
2022-07-26T13:38:03.709Z,2.17
2022-07-26T13:40:32.334Z,1.93
2022-07-26T13:43:02.096Z,1.80
2022-07-26T13:45:30.358Z,1.50
2022-07-26T13:47:59.793Z,1.67
2022-07-26T13:50:28.438Z,1.60
2022-07-26T13:52:57.386Z,1.60
2022-07-26T13:55:28.903Z,1.43
2022-07-26T13:57:58.097Z,1.83
2022-07-26T14:00:29.001Z,1.20
2022-07-26T14:02:59.398Z,1.47
2022-07-26T14:05:28.316Z,1.30
2022-07-26T14:07:56.844Z,1.70
2022-07-26T14:10:25.663Z,1.77
2022-07-26T14:12:53.934Z,1.60
2022-07-26T14:15:23.546Z,1.50
2022-07-26T14:17:53.857Z,1.30
2022-07-26T14:20:22.054Z,1.67
2022-07-26T14:22:53.464Z,1.43
2022-07-26T14:25:22.159Z,1.57
2022-07-26T14:27:51.152Z,1.57
2022-07-26T14:30:19.637Z,1.60
2022-07-26T14:32:48.405Z,1.17
2022-07-26T14:35:18.447Z,1.50
2022-07-26T14:37:46.658Z,1.60
2022-07-26T14:40:16.372Z,1.20
2022-07-26T14:42:44.788Z,1.20
2022-07-26T14:45:13.257Z,1.43
2022-07-26T14:47:41.509Z,1.50
2022-07-26T14:50:11.192Z,1.30
2022-07-26T14:52:42.103Z,1.33
2022-07-26T14:55:11.116Z,1.50
2022-07-26T14:57:40.383Z,1.30
2022-07-26T15:00:10.458Z,1.70
2022-07-26T15:02:40.300Z,1.70
2022-07-26T15:05:09.384Z,1.70
2022-07-26T15:07:37.770Z,1.63
2022-07-26T15:10:09.198Z,1.67
2022-07-26T15:12:37.615Z,1.80
2022-07-26T15:15:07.269Z,1.40
2022-07-26T15:17:35.925Z,1.60
2022-07-26T15:20:05.488Z,1.73
2022-07-26T15:22:33.686Z,1.77
2022-07-26T15:25:01.838Z,1.20
2022-07-26T15:27:31.787Z,1.60
2022-07-26T15:30:04.313Z,1.20
2022-07-26T15:32:36.589Z,2.37
2022-07-26T15:35:05.108Z,1.93
2022-07-26T15:37:33.294Z,1.67
2022-07-26T15:40:01.774Z,2.10
2022-07-26T15:42:32.983Z,1.40
2022-07-26T15:45:03.220Z,1.73
2022-07-26T15:47:53.597Z,1.57
2022-07-26T15:50:23.425Z,1.43
2022-07-26T15:52:51.760Z,1.40
2022-07-26T15:55:20.773Z,1.60
2022-07-26T15:57:50.356Z,1.80
2022-07-26T16:00:19.540Z,2.43
2022-07-26T16:02:47.878Z,2.17
2022-07-26T16:05:16.254Z,5.73
2022-07-26T16:07:45.125Z,2.30
2022-07-26T16:10:15.159Z,1.87
2022-07-26T16:12:43.858Z,1.90
2022-07-26T16:15:13.660Z,2.00
2022-07-26T16:17:42.067Z,1.87
2022-07-26T16:20:10.833Z,1.80
2022-07-26T16:22:41.274Z,2.30
2022-07-26T16:25:12.819Z,2.07
2022-07-26T16:27:41.842Z,1.80
2022-07-26T16:30:11.208Z,2.17
2022-07-26T16:32:40.809Z,2.10
2022-07-26T16:35:10.118Z,1.73
2022-07-26T16:37:38.552Z,1.53
2022-07-26T16:40:08.389Z,2.00
2022-07-26T16:42:36.555Z,1.30
2022-07-26T16:45:05.439Z,1.90
2022-07-26T16:47:37.523Z,1.40
2022-07-26T16:50:08.469Z,1.77
2022-07-26T16:52:36.617Z,1.87
2022-07-26T16:55:07.697Z,1.93
2022-07-26T16:57:35.894Z,3.20
2022-07-26T17:00:04.435Z,1.87
2022-07-26T17:02:32.769Z,1.80
2022-07-26T17:05:01.059Z,1.70
2022-07-26T17:07:32.011Z,1.63
2022-07-26T17:10:00.426Z,1.90
2022-07-26T17:12:28.550Z,1.97
2022-07-26T17:14:56.837Z,1.97
2022-07-26T17:17:25.309Z,1.83
2022-07-26T17:19:53.639Z,2.17
2022-07-26T17:22:22.278Z,2.57
2022-07-26T17:24:51.973Z,2.10
2022-07-26T17:27:20.370Z,1.80
2022-07-26T17:29:48.567Z,1.67
2022-07-26T17:32:16.773Z,2.60
2022-07-26T17:34:45.027Z,1.63
2022-07-26T17:37:13.419Z,1.57
2022-07-26T17:39:51.703Z,2.10
2022-07-26T17:42:22.889Z,1.80
2022-07-26T17:44:51.475Z,1.63
2022-07-26T17:47:29.254Z,1.60
2022-07-26T17:52:53.227Z,2.27
2022-07-26T17:55:22.084Z,2.23
2022-07-26T17:57:51.924Z,2.00
2022-07-26T18:00:21.524Z,1.73
2022-07-26T18:02:50.196Z,2.30
2022-07-26T18:05:19.621Z,1.93
2022-07-26T18:07:48.195Z,2.30
2022-07-26T18:10:16.749Z,2.07
2022-07-26T18:12:44.895Z,1.90
2022-07-26T18:15:14.442Z,1.70
2022-07-26T18:17:42.746Z,1.83
2022-07-26T18:20:12.207Z,1.60
2022-07-26T18:22:40.468Z,1.83
2022-07-26T18:25:09.423Z,2.13
2022-07-26T18:27:37.869Z,2.37
2022-07-26T18:30:07.454Z,1.80
2022-07-26T18:32:37.018Z,1.70
2022-07-26T18:35:06.092Z,2.27
2022-07-26T18:37:34.453Z,2.53
2022-07-26T18:40:02.755Z,2.10
2022-07-26T18:42:31.028Z,2.17
2022-07-26T18:44:59.189Z,1.90
2022-07-26T18:47:27.404Z,1.93
2022-07-26T18:49:56.950Z,1.97
2022-07-26T18:52:28.852Z,2.70
2022-07-26T18:55:02.362Z,2.20
2022-07-26T18:57:30.819Z,2.50
2022-07-26T18:59:58.969Z,2.13
2022-07-26T19:02:27.344Z,2.43
2022-07-26T19:04:56.846Z,3.10
2022-07-26T19:07:25.174Z,1.90
2022-07-26T19:09:58.016Z,2.60
2022-07-26T19:12:27.589Z,2.53
2022-07-26T19:14:55.934Z,2.57
2022-07-26T19:17:24.320Z,2.80
2022-07-26T19:19:53.140Z,2.03
2022-07-26T19:22:24.190Z,3.10
2022-07-26T19:24:52.499Z,2.37
2022-07-26T19:27:20.740Z,2.33
2022-07-26T19:29:49.859Z,3.47
2022-07-26T19:32:18.220Z,2.83
2022-07-26T19:34:46.452Z,3.70
2022-07-26T19:37:21.183Z,3.00
2022-07-26T19:39:51.440Z,2.77
2022-07-26T19:42:20.015Z,2.90
2022-07-26T19:44:48.516Z,3.73
2022-07-26T19:47:16.607Z,2.93
2022-07-26T19:49:44.789Z,2.70
2022-07-26T19:52:13.004Z,2.47
2022-07-26T19:54:41.456Z,3.60
2022-07-26T19:57:11.075Z,3.50
2022-07-26T19:59:39.398Z,2.60
2022-07-26T20:02:07.747Z,3.20
2022-07-26T20:04:36.047Z,3.40
2022-07-26T20:07:04.534Z,2.77
2022-07-26T20:09:32.746Z,2.37
2022-07-26T20:12:01.858Z,3.00
2022-07-26T20:14:31.441Z,3.30
2022-07-26T20:17:00.173Z,4.83
2022-07-26T20:19:28.455Z,4.17
2022-07-26T20:21:58.799Z,3.77
2022-07-26T20:24:27.597Z,3.40
2022-07-26T20:26:55.894Z,2.63
2022-07-26T20:29:24.261Z,2.50
2022-07-26T20:31:53.999Z,2.10
2022-07-26T20:34:22.164Z,3.20
2022-07-26T20:36:50.333Z,2.93
2022-07-26T20:39:18.587Z,2.43
2022-07-26T20:41:47.328Z,3.00
2022-07-26T20:44:15.510Z,2.97
2022-07-26T20:46:44.696Z,2.60
2022-07-26T20:49:14.719Z,2.60
2022-07-26T20:51:43.661Z,2.63
2022-07-26T20:54:12.629Z,2.53
2022-07-26T20:56:40.833Z,3.00
2022-07-26T20:59:10.241Z,2.90
2022-07-26T21:01:38.845Z,3.07
2022-07-26T21:04:07.005Z,3.40
2022-07-26T21:06:36.486Z,2.63
2022-07-26T21:09:09.595Z,3.47
2022-07-26T21:11:39.757Z,3.13
2022-07-26T21:14:10.135Z,3.10
2022-07-26T21:16:38.862Z,2.50
2022-07-26T21:19:07.190Z,2.50
2022-07-26T21:21:38.118Z,2.10
2022-07-26T21:24:07.244Z,2.60
2022-07-26T21:26:35.974Z,2.20
2022-07-26T21:29:04.329Z,2.40
2022-07-26T21:31:32.502Z,2.50
2022-07-26T21:34:00.803Z,2.10
2022-07-26T21:36:29.026Z,3.03
2022-07-26T21:38:58.578Z,2.60
2022-07-26T21:41:26.677Z,2.30
2022-07-26T21:43:54.792Z,2.20
2022-07-26T21:46:23.297Z,2.50
2022-07-26T21:48:51.549Z,2.33
2022-07-26T21:51:20.147Z,2.07
2022-07-26T21:53:48.366Z,2.40
2022-07-26T21:56:18.785Z,2.47
2022-07-26T21:58:47.188Z,3.00
2022-07-26T22:01:15.826Z,2.50
2022-07-26T22:03:44.477Z,2.23
2022-07-26T22:06:13.031Z,1.80
2022-07-26T22:08:41.219Z,2.33
2022-07-26T22:11:09.742Z,1.90
2022-07-26T22:13:39.819Z,2.40
2022-07-26T22:16:08.378Z,2.20
2022-07-26T22:18:36.616Z,2.20
2022-07-26T22:21:05.026Z,2.80
2022-07-26T22:23:33.482Z,2.53
2022-07-26T22:26:03.208Z,2.13
2022-07-26T22:28:32.384Z,2.10
2022-07-26T22:31:02.586Z,2.20
2022-07-26T22:33:30.840Z,2.30
2022-07-26T22:35:59.018Z,2.20
2022-07-26T22:38:27.166Z,2.27
2022-07-26T22:40:55.295Z,2.60
2022-07-26T22:43:23.550Z,2.40
2022-07-26T22:45:51.749Z,2.17
2022-07-26T22:48:21.337Z,2.03
2022-07-26T22:50:49.488Z,1.93
2022-07-26T22:53:17.749Z,3.10
2022-07-26T22:55:45.913Z,2.90
2022-07-26T22:58:14.492Z,2.63
2022-07-26T23:00:42.914Z,2.53
2022-07-26T23:03:19.707Z,2.93
2022-07-26T23:05:52.310Z,2.50
2022-07-26T23:11:08.842Z,2.77
2022-07-26T23:13:37.496Z,3.03
2022-07-26T23:16:06.308Z,3.00
2022-07-26T23:18:36.147Z,2.90
2022-07-26T23:21:05.825Z,3.00
2022-07-26T23:23:34.031Z,3.07
2022-07-26T23:26:02.416Z,3.77
2022-07-26T23:28:35.635Z,3.07
2022-07-26T23:31:09.588Z,3.27
2022-07-26T23:33:53.326Z,2.60
2022-07-26T23:36:28.065Z,2.17
2022-07-26T23:38:56.630Z,3.10
2022-07-26T23:41:25.306Z,2.90
2022-07-26T23:43:54.310Z,2.70
2022-07-26T23:46:22.638Z,2.60
2022-07-26T23:48:51.526Z,3.00
2022-07-26T23:51:20.497Z,2.00
2022-07-26T23:53:50.277Z,2.60
2022-07-26T23:56:19.075Z,2.70
2022-07-26T23:58:47.226Z,2.60
